sensor_id;sensor_type;location;lat;lon;timestamp;pressure;altitude;pressure_sealevel;temperature;humidity
50065;BME280;64524;47.848;-122.338;2023-04-19T00:03:39;101118.73;;;9.51;100.00
50065;BME280;64524;47.848;-122.338;2023-04-19T00:10:18;101118.73;;;9.44;100.00
50065;BME280;64524;47.848;-122.338;2023-04-19T00:13:01;101120.69;;;9.46;100.00
50065;BME280;64524;47.848;-122.338;2023-04-19T00:15:43;101126.33;;;9.51;100.00
50065;BME280;64524;47.848;-122.338;2023-04-19T00:18:12;101123.35;;;9.49;100.00
50065;BME280;64524;47.848;-122.338;2023-04-19T00:20:41;101128.28;;;9.45;100.00
50065;BME280;64524;47.848;-122.338;2023-04-19T00:23:11;101125.25;;;9.41;100.00
50065;BME280;64524;47.848;-122.338;2023-04-19T00:25:49;101128.48;;;9.39;100.00
50065;BME280;64524;47.848;-122.338;2023-04-19T00:31:23;101125.73;;;9.32;100.00
50065;BME280;64524;47.848;-122.338;2023-04-19T00:34:26;101121.21;;;9.31;100.00
50065;BME280;64524;47.848;-122.338;2023-04-19T00:36:57;101122.25;;;9.32;100.00
50065;BME280;64524;47.848;-122.338;2023-04-19T00:39:36;101124.00;;;9.32;100.00
50065;BME280;64524;47.848;-122.338;2023-04-19T00:42:05;101123.14;;;9.32;100.00
50065;BME280;64524;47.848;-122.338;2023-04-19T00:44:56;101127.42;;;9.30;100.00
50065;BME280;64524;47.848;-122.338;2023-04-19T00:47:27;101122.88;;;9.29;100.00
50065;BME280;64524;47.848;-122.338;2023-04-19T00:50:08;101120.95;;;9.28;100.00
50065;BME280;64524;47.848;-122.338;2023-04-19T00:55:51;101117.58;;;9.31;100.00
50065;BME280;64524;47.848;-122.338;2023-04-19T00:58:37;101116.64;;;9.35;100.00
50065;BME280;64524;47.848;-122.338;2023-04-19T01:01:07;101123.13;;;9.39;100.00
50065;BME280;64524;47.848;-122.338;2023-04-19T01:03:43;101118.03;;;9.43;100.00
50065;BME280;64524;47.848;-122.338;2023-04-19T01:06:32;101121.05;;;9.47;100.00
50065;BME280;64524;47.848;-122.338;2023-04-19T01:09:03;101124.41;;;9.50;100.00
50065;BME280;64524;47.848;-122.338;2023-04-19T01:11:45;101119.64;;;9.53;100.00
50065;BME280;64524;47.848;-122.338;2023-04-19T01:14:15;101121.90;;;9.54;100.00
50065;BME280;64524;47.848;-122.338;2023-04-19T01:16:47;101119.98;;;9.52;100.00
50065;BME280;64524;47.848;-122.338;2023-04-19T01:19:19;101123.56;;;9.51;100.00
50065;BME280;64524;47.848;-122.338;2023-04-19T01:21:49;101126.63;;;9.49;100.00
50065;BME280;64524;47.848;-122.338;2023-04-19T01:24:19;101136.08;;;9.46;100.00
50065;BME280;64524;47.848;-122.338;2023-04-19T01:26:49;101134.09;;;9.42;100.00
50065;BME280;64524;47.848;-122.338;2023-04-19T01:29:24;101135.04;;;9.38;100.00
50065;BME280;64524;47.848;-122.338;2023-04-19T01:31:57;101139.21;;;9.32;100.00
50065;BME280;64524;47.848;-122.338;2023-04-19T01:34:32;101138.19;;;9.25;100.00
50065;BME280;64524;47.848;-122.338;2023-04-19T01:37:04;101137.70;;;9.19;100.00
50065;BME280;64524;47.848;-122.338;2023-04-19T01:39:38;101144.02;;;9.16;100.00
50065;BME280;64524;47.848;-122.338;2023-04-19T01:42:19;101148.11;;;9.14;100.00
50065;BME280;64524;47.848;-122.338;2023-04-19T01:44:59;101147.15;;;9.10;100.00
50065;BME280;64524;47.848;-122.338;2023-04-19T01:47:52;101147.05;;;9.06;100.00
50065;BME280;64524;47.848;-122.338;2023-04-19T01:50:46;101145.20;;;9.01;100.00
50065;BME280;64524;47.848;-122.338;2023-04-19T01:53:36;101143.53;;;8.97;100.00
50065;BME280;64524;47.848;-122.338;2023-04-19T01:56:05;101137.27;;;8.94;100.00
50065;BME280;64524;47.848;-122.338;2023-04-19T01:58:54;101135.34;;;8.93;100.00
50065;BME280;64524;47.848;-122.338;2023-04-19T02:01:33;101140.94;;;8.90;100.00
50065;BME280;64524;47.848;-122.338;2023-04-19T02:04:03;101146.58;;;8.88;100.00
50065;BME280;64524;47.848;-122.338;2023-04-19T02:06:33;101143.00;;;8.89;100.00
50065;BME280;64524;47.848;-122.338;2023-04-19T02:09:12;101140.80;;;8.90;100.00
50065;BME280;64524;47.848;-122.338;2023-04-19T02:12:11;101138.58;;;8.92;100.00
50065;BME280;64524;47.848;-122.338;2023-04-19T02:14:43;101135.86;;;8.94;100.00
50065;BME280;64524;47.848;-122.338;2023-04-19T02:17:16;101134.66;;;8.94;100.00
50065;BME280;64524;47.848;-122.338;2023-04-19T02:19:45;101139.02;;;8.96;100.00
50065;BME280;64524;47.848;-122.338;2023-04-19T02:22:44;101137.54;;;8.98;100.00
50065;BME280;64524;47.848;-122.338;2023-04-19T02:25:33;101139.42;;;8.98;100.00
50065;BME280;64524;47.848;-122.338;2023-04-19T02:28:01;101145.70;;;9.00;100.00
50065;BME280;64524;47.848;-122.338;2023-04-19T02:30:36;101147.13;;;9.02;100.00
50065;BME280;64524;47.848;-122.338;2023-04-19T02:33:14;101147.88;;;9.04;100.00
50065;BME280;64524;47.848;-122.338;2023-04-19T02:35:50;101148.28;;;9.07;100.00
50065;BME280;64524;47.848;-122.338;2023-04-19T02:38:42;101154.65;;;9.06;100.00
50065;BME280;64524;47.848;-122.338;2023-04-19T02:41:12;101158.02;;;9.02;100.00
50065;BME280;64524;47.848;-122.338;2023-04-19T02:44:13;101159.52;;;8.99;100.00
50065;BME280;64524;47.848;-122.338;2023-04-19T02:49:40;101159.69;;;8.93;100.00
50065;BME280;64524;47.848;-122.338;2023-04-19T02:52:13;101164.27;;;8.90;100.00
50065;BME280;64524;47.848;-122.338;2023-04-19T02:54:42;101164.33;;;8.85;100.00
50065;BME280;64524;47.848;-122.338;2023-04-19T02:57:11;101164.11;;;8.83;100.00
50065;BME280;64524;47.848;-122.338;2023-04-19T02:59:41;101169.77;;;8.81;100.00
50065;BME280;64524;47.848;-122.338;2023-04-19T03:08:21;101177.92;;;8.70;100.00
50065;BME280;64524;47.848;-122.338;2023-04-19T03:11:11;101180.23;;;8.66;100.00
50065;BME280;64524;47.848;-122.338;2023-04-19T03:14:03;101182.85;;;8.61;100.00
50065;BME280;64524;47.848;-122.338;2023-04-19T03:17:13;101188.52;;;8.54;100.00
50065;BME280;64524;47.848;-122.338;2023-04-19T03:19:43;101189.26;;;8.49;100.00
50065;BME280;64524;47.848;-122.338;2023-04-19T03:22:16;101189.86;;;8.45;100.00
50065;BME280;64524;47.848;-122.338;2023-04-19T03:24:45;101190.57;;;8.41;100.00
50065;BME280;64524;47.848;-122.338;2023-04-19T03:27:21;101196.30;;;8.37;100.00
50065;BME280;64524;47.848;-122.338;2023-04-19T03:29:50;101201.71;;;8.33;100.00
50065;BME280;64524;47.848;-122.338;2023-04-19T03:32:19;101202.95;;;8.28;100.00
50065;BME280;64524;47.848;-122.338;2023-04-19T03:34:57;101203.04;;;8.24;100.00
50065;BME280;64524;47.848;-122.338;2023-04-19T03:37:27;101201.36;;;8.20;100.00
50065;BME280;64524;47.848;-122.338;2023-04-19T03:39:57;101201.81;;;8.18;100.00
50065;BME280;64524;47.848;-122.338;2023-04-19T03:42:29;101201.06;;;8.16;100.00
50065;BME280;64524;47.848;-122.338;2023-04-19T03:45:06;101204.77;;;8.12;100.00
50065;BME280;64524;47.848;-122.338;2023-04-19T03:47:36;101206.56;;;8.09;100.00
50065;BME280;64524;47.848;-122.338;2023-04-19T03:50:08;101209.55;;;8.05;100.00
50065;BME280;64524;47.848;-122.338;2023-04-19T03:52:46;101215.98;;;8.01;100.00
50065;BME280;64524;47.848;-122.338;2023-04-19T03:55:25;101220.39;;;7.99;100.00
50065;BME280;64524;47.848;-122.338;2023-04-19T04:01:04;101223.78;;;7.91;100.00
50065;BME280;64524;47.848;-122.338;2023-04-19T04:03:53;101224.70;;;7.87;100.00
50065;BME280;64524;47.848;-122.338;2023-04-19T04:07:03;101223.19;;;7.83;100.00
50065;BME280;64524;47.848;-122.338;2023-04-19T04:15:31;101237.12;;;7.76;100.00
50065;BME280;64524;47.848;-122.338;2023-04-19T04:18:04;101233.65;;;7.76;100.00
50065;BME280;64524;47.848;-122.338;2023-04-19T04:24:37;101240.75;;;7.71;100.00
50065;BME280;64524;47.848;-122.338;2023-04-19T04:30:19;101240.42;;;7.66;100.00
50065;BME280;64524;47.848;-122.338;2023-04-19T04:33:39;101245.60;;;7.66;100.00
50065;BME280;64524;47.848;-122.338;2023-04-19T04:36:41;101244.34;;;7.64;100.00
50065;BME280;64524;47.848;-122.338;2023-04-19T04:46:38;101251.17;;;7.58;100.00
50065;BME280;64524;47.848;-122.338;2023-04-19T04:49:07;101252.87;;;7.56;100.00
50065;BME280;64524;47.848;-122.338;2023-04-19T04:52:07;101250.54;;;7.54;100.00
50065;BME280;64524;47.848;-122.338;2023-04-19T04:58:00;101253.19;;;7.50;100.00
50065;BME280;64524;47.848;-122.338;2023-04-19T05:00:33;101255.23;;;7.50;100.00
50065;BME280;64524;47.848;-122.338;2023-04-19T05:06:33;101261.06;;;7.48;100.00
50065;BME280;64524;47.848;-122.338;2023-04-19T05:09:13;101257.38;;;7.47;100.00
50065;BME280;64524;47.848;-122.338;2023-04-19T05:12:11;101261.42;;;7.44;100.00
50065;BME280;64524;47.848;-122.338;2023-04-19T05:24:17;101257.83;;;7.40;100.00
50065;BME280;64524;47.848;-122.338;2023-04-19T05:33:36;101261.46;;;7.45;100.00
50065;BME280;64524;47.848;-122.338;2023-04-19T05:36:59;101260.80;;;7.46;100.00
50065;BME280;64524;47.848;-122.338;2023-04-19T05:39:28;101258.06;;;7.46;100.00
50065;BME280;64524;47.848;-122.338;2023-04-19T05:48:33;101258.30;;;7.44;100.00
50065;BME280;64524;47.848;-122.338;2023-04-19T05:54:43;101253.33;;;7.39;100.00
50065;BME280;64524;47.848;-122.338;2023-04-19T06:00:32;101251.58;;;7.33;100.00
50065;BME280;64524;47.848;-122.338;2023-04-19T06:10:16;101243.30;;;7.27;100.00
50065;BME280;64524;47.848;-122.338;2023-04-19T06:13:08;101242.68;;;7.25;100.00
50065;BME280;64524;47.848;-122.338;2023-04-19T06:15:57;101244.63;;;7.21;100.00
50065;BME280;64524;47.848;-122.338;2023-04-19T06:19:07;101245.90;;;7.18;100.00
50065;BME280;64524;47.848;-122.338;2023-04-19T06:38:06;101235.16;;;7.01;100.00
50065;BME280;64524;47.848;-122.338;2023-04-19T06:40:58;101234.39;;;6.99;100.00
50065;BME280;64524;47.848;-122.338;2023-04-19T06:43:29;101235.84;;;6.96;100.00
50065;BME280;64524;47.848;-122.338;2023-04-19T06:46:40;101236.73;;;6.92;100.00
50065;BME280;64524;47.848;-122.338;2023-04-19T06:49:49;101234.84;;;6.86;100.00
50065;BME280;64524;47.848;-122.338;2023-04-19T06:52:43;101240.26;;;6.84;100.00
50065;BME280;64524;47.848;-122.338;2023-04-19T06:55:33;101236.17;;;6.81;100.00
50065;BME280;64524;47.848;-122.338;2023-04-19T06:58:20;101240.13;;;6.76;100.00
50065;BME280;64524;47.848;-122.338;2023-04-19T07:00:59;101239.15;;;6.72;100.00
50065;BME280;64524;47.848;-122.338;2023-04-19T07:04:05;101238.98;;;6.68;100.00
50065;BME280;64524;47.848;-122.338;2023-04-19T07:09:46;101243.59;;;6.62;100.00
50065;BME280;64524;47.848;-122.338;2023-04-19T07:12:25;101243.98;;;6.58;100.00
50065;BME280;64524;47.848;-122.338;2023-04-19T07:14:57;101246.70;;;6.57;100.00
50065;BME280;64524;47.848;-122.338;2023-04-19T07:17:34;101245.45;;;6.56;100.00
50065;BME280;64524;47.848;-122.338;2023-04-19T07:20:20;101244.76;;;6.56;100.00
50065;BME280;64524;47.848;-122.338;2023-04-19T07:23:28;101237.48;;;6.54;100.00
50065;BME280;64524;47.848;-122.338;2023-04-19T07:29:11;101237.58;;;6.47;100.00
50065;BME280;64524;47.848;-122.338;2023-04-19T07:32:07;101233.48;;;6.44;100.00
50065;BME280;64524;47.848;-122.338;2023-04-19T07:34:47;101234.91;;;6.41;100.00
50065;BME280;64524;47.848;-122.338;2023-04-19T07:37:16;101233.95;;;6.38;100.00
50065;BME280;64524;47.848;-122.338;2023-04-19T07:39:55;101233.48;;;6.34;100.00
50065;BME280;64524;47.848;-122.338;2023-04-19T07:45:48;101237.92;;;6.29;100.00
50065;BME280;64524;47.848;-122.338;2023-04-19T07:48:58;101236.63;;;6.27;100.00
50065;BME280;64524;47.848;-122.338;2023-04-19T07:51:33;101241.25;;;6.26;100.00
50065;BME280;64524;47.848;-122.338;2023-04-19T07:57:23;101243.43;;;6.20;100.00
50065;BME280;64524;47.848;-122.338;2023-04-19T08:00:06;101247.55;;;6.20;100.00
50065;BME280;64524;47.848;-122.338;2023-04-19T08:09:31;101235.67;;;6.15;100.00
50065;BME280;64524;47.848;-122.338;2023-04-19T08:12:40;101235.41;;;6.13;100.00
50065;BME280;64524;47.848;-122.338;2023-04-19T08:19:09;101232.05;;;6.10;100.00
50065;BME280;64524;47.848;-122.338;2023-04-19T08:28:38;101231.39;;;6.07;100.00
50065;BME280;64524;47.848;-122.338;2023-04-19T08:31:18;101232.25;;;6.06;100.00
50065;BME280;64524;47.848;-122.338;2023-04-19T08:33:51;101236.20;;;6.06;100.00
50065;BME280;64524;47.848;-122.338;2023-04-19T08:36:32;101233.77;;;6.06;100.00
50065;BME280;64524;47.848;-122.338;2023-04-19T08:39:13;101232.59;;;6.06;100.00
50065;BME280;64524;47.848;-122.338;2023-04-19T08:45:12;101226.30;;;6.04;100.00
50065;BME280;64524;47.848;-122.338;2023-04-19T08:47:56;101232.81;;;6.03;100.00
50065;BME280;64524;47.848;-122.338;2023-04-19T08:50:35;101235.95;;;6.04;100.00
50065;BME280;64524;47.848;-122.338;2023-04-19T08:53:30;101241.52;;;6.06;100.00
50065;BME280;64524;47.848;-122.338;2023-04-19T08:56:21;101241.11;;;6.08;100.00
50065;BME280;64524;47.848;-122.338;2023-04-19T08:59:02;101247.94;;;6.12;100.00
50065;BME280;64524;47.848;-122.338;2023-04-19T09:01:51;101245.98;;;6.14;100.00
50065;BME280;64524;47.848;-122.338;2023-04-19T09:04:26;101246.25;;;6.17;100.00
50065;BME280;64524;47.848;-122.338;2023-04-19T09:07:03;101247.33;;;6.19;100.00
50065;BME280;64524;47.848;-122.338;2023-04-19T09:09:54;101242.52;;;6.19;100.00
50065;BME280;64524;47.848;-122.338;2023-04-19T09:12:34;101240.79;;;6.19;100.00
50065;BME280;64524;47.848;-122.338;2023-04-19T09:15:05;101237.20;;;6.19;100.00
50065;BME280;64524;47.848;-122.338;2023-04-19T09:18:02;101237.03;;;6.19;100.00
50065;BME280;64524;47.848;-122.338;2023-04-19T09:20:57;101241.78;;;6.18;100.00
50065;BME280;64524;47.848;-122.338;2023-04-19T09:23:30;101241.42;;;6.17;100.00
50065;BME280;64524;47.848;-122.338;2023-04-19T09:26:14;101242.64;;;6.17;100.00
50065;BME280;64524;47.848;-122.338;2023-04-19T09:29:03;101244.91;;;6.18;100.00
50065;BME280;64524;47.848;-122.338;2023-04-19T09:31:36;101247.02;;;6.19;100.00
50065;BME280;64524;47.848;-122.338;2023-04-19T09:34:14;101248.08;;;6.20;100.00
50065;BME280;64524;47.848;-122.338;2023-04-19T09:36:49;101243.30;;;6.21;100.00
50065;BME280;64524;47.848;-122.338;2023-04-19T09:39:55;101242.83;;;6.22;100.00
50065;BME280;64524;47.848;-122.338;2023-04-19T09:42:44;101243.20;;;6.23;100.00
50065;BME280;64524;47.848;-122.338;2023-04-19T09:45:19;101245.89;;;6.26;100.00
50065;BME280;64524;47.848;-122.338;2023-04-19T09:48:19;101246.84;;;6.28;100.00
50065;BME280;64524;47.848;-122.338;2023-04-19T09:56:23;101242.19;;;6.28;100.00
50065;BME280;64524;47.848;-122.338;2023-04-19T09:58:55;101242.20;;;6.28;100.00
50065;BME280;64524;47.848;-122.338;2023-04-19T10:02:06;101243.69;;;6.27;100.00
50065;BME280;64524;47.848;-122.338;2023-04-19T10:04:37;101243.20;;;6.27;100.00
50065;BME280;64524;47.848;-122.338;2023-04-19T10:10:19;101242.33;;;6.27;100.00
50065;BME280;64524;47.848;-122.338;2023-04-19T10:13:22;101236.82;;;6.27;100.00
50065;BME280;64524;47.848;-122.338;2023-04-19T10:16:11;101240.05;;;6.26;100.00
50065;BME280;64524;47.848;-122.338;2023-04-19T10:19:22;101244.36;;;6.26;100.00
50065;BME280;64524;47.848;-122.338;2023-04-19T10:22:19;101250.02;;;6.26;100.00
50065;BME280;64524;47.848;-122.338;2023-04-19T10:25:28;101251.37;;;6.25;100.00
50065;BME280;64524;47.848;-122.338;2023-04-19T10:39:50;101248.20;;;6.23;100.00
50065;BME280;64524;47.848;-122.338;2023-04-19T10:56:07;101265.94;;;6.24;100.00
50065;BME280;64524;47.848;-122.338;2023-04-19T11:05:37;101272.00;;;6.21;100.00
50065;BME280;64524;47.848;-122.338;2023-04-19T11:08:00;101271.62;;;6.20;100.00
50065;BME280;64524;47.848;-122.338;2023-04-19T11:10:33;101268.34;;;6.19;100.00
50065;BME280;64524;47.848;-122.338;2023-04-19T11:13:05;101272.64;;;6.19;100.00
50065;BME280;64524;47.848;-122.338;2023-04-19T11:15:34;101271.90;;;6.18;100.00
50065;BME280;64524;47.848;-122.338;2023-04-19T11:18:20;101272.73;;;6.17;100.00
50065;BME280;64524;47.848;-122.338;2023-04-19T11:20:52;101272.72;;;6.17;100.00
50065;BME280;64524;47.848;-122.338;2023-04-19T11:23:43;101276.60;;;6.14;100.00
50065;BME280;64524;47.848;-122.338;2023-04-19T11:26:15;101282.52;;;6.12;100.00
50065;BME280;64524;47.848;-122.338;2023-04-19T11:28:48;101279.55;;;6.11;100.00
50065;BME280;64524;47.848;-122.338;2023-04-19T11:31:18;101276.41;;;6.09;100.00
50065;BME280;64524;47.848;-122.338;2023-04-19T11:34:08;101272.26;;;6.09;100.00
50065;BME280;64524;47.848;-122.338;2023-04-19T11:36:52;101275.89;;;6.10;100.00
50065;BME280;64524;47.848;-122.338;2023-04-19T11:39:21;101275.93;;;6.11;100.00
50065;BME280;64524;47.848;-122.338;2023-04-19T11:41:51;101275.30;;;6.12;100.00
50065;BME280;64524;47.848;-122.338;2023-04-19T11:44:40;101273.83;;;6.14;100.00
50065;BME280;64524;47.848;-122.338;2023-04-19T11:47:14;101279.39;;;6.15;100.00
50065;BME280;64524;47.848;-122.338;2023-04-19T11:49:44;101279.59;;;6.17;100.00
50065;BME280;64524;47.848;-122.338;2023-04-19T11:52:25;101279.63;;;6.18;100.00
50065;BME280;64524;47.848;-122.338;2023-04-19T12:01:32;101282.39;;;6.18;100.00
50065;BME280;64524;47.848;-122.338;2023-04-19T12:04:04;101286.38;;;6.18;100.00
50065;BME280;64524;47.848;-122.338;2023-04-19T12:06:33;101286.80;;;6.21;100.00
50065;BME280;64524;47.848;-122.338;2023-04-19T12:09:06;101291.36;;;6.23;100.00
50065;BME280;64524;47.848;-122.338;2023-04-19T12:11:47;101296.40;;;6.24;100.00
50065;BME280;64524;47.848;-122.338;2023-04-19T12:14:19;101296.83;;;6.26;100.00
50065;BME280;64524;47.848;-122.338;2023-04-19T12:17:28;101301.52;;;6.28;100.00
50065;BME280;64524;47.848;-122.338;2023-04-19T12:23:39;101303.34;;;6.34;100.00
50065;BME280;64524;47.848;-122.338;2023-04-19T12:26:21;101308.23;;;6.37;100.00
50065;BME280;64524;47.848;-122.338;2023-04-19T12:28:50;101311.77;;;6.39;100.00
50065;BME280;64524;47.848;-122.338;2023-04-19T12:31:23;101310.42;;;6.40;100.00
50065;BME280;64524;47.848;-122.338;2023-04-19T12:51:08;101333.42;;;6.43;100.00
50065;BME280;64524;47.848;-122.338;2023-04-19T13:07:35;101351.59;;;6.54;100.00
50065;BME280;64524;47.848;-122.338;2023-04-19T13:10:05;101356.50;;;6.57;100.00
50065;BME280;64524;47.848;-122.338;2023-04-19T13:12:36;101361.73;;;6.59;100.00
50065;BME280;64524;47.848;-122.338;2023-04-19T13:15:06;101361.30;;;6.61;100.00
50065;BME280;64524;47.848;-122.338;2023-04-19T13:17:35;101360.80;;;6.61;100.00
50065;BME280;64524;47.848;-122.338;2023-04-19T13:20:06;101361.96;;;6.60;100.00
50065;BME280;64524;47.848;-122.338;2023-04-19T13:22:37;101355.75;;;6.60;100.00
50065;BME280;64524;47.848;-122.338;2023-04-19T13:25:15;101360.88;;;6.59;100.00
50065;BME280;64524;47.848;-122.338;2023-04-19T13:27:47;101361.83;;;6.56;100.00
50065;BME280;64524;47.848;-122.338;2023-04-19T13:30:16;101369.19;;;6.55;100.00
50065;BME280;64524;47.848;-122.338;2023-04-19T13:32:48;101372.21;;;6.53;100.00
50065;BME280;64524;47.848;-122.338;2023-04-19T13:35:21;101374.36;;;6.51;100.00
50065;BME280;64524;47.848;-122.338;2023-04-19T13:37:51;101382.05;;;6.50;100.00
50065;BME280;64524;47.848;-122.338;2023-04-19T13:40:32;101384.65;;;6.46;100.00
50065;BME280;64524;47.848;-122.338;2023-04-19T13:50:17;101394.29;;;6.37;100.00
50065;BME280;64524;47.848;-122.338;2023-04-19T13:53:08;101397.52;;;6.36;100.00
50065;BME280;64524;47.848;-122.338;2023-04-19T13:55:36;101402.61;;;6.34;100.00
50065;BME280;64524;47.848;-122.338;2023-04-19T14:01:59;101410.42;;;6.31;100.00
50065;BME280;64524;47.848;-122.338;2023-04-19T14:05:09;101412.77;;;6.30;100.00
50065;BME280;64524;47.848;-122.338;2023-04-19T14:11:34;101418.77;;;6.29;100.00
50065;BME280;64524;47.848;-122.338;2023-04-19T14:14:17;101425.30;;;6.30;100.00
50065;BME280;64524;47.848;-122.338;2023-04-19T14:17:26;101429.95;;;6.29;100.00
50065;BME280;64524;47.848;-122.338;2023-04-19T14:27:14;101448.42;;;6.31;100.00
50065;BME280;64524;47.848;-122.338;2023-04-19T14:36:45;101459.38;;;6.33;100.00
50065;BME280;64524;47.848;-122.338;2023-04-19T14:39:21;101465.77;;;6.34;100.00
50065;BME280;64524;47.848;-122.338;2023-04-19T14:45:11;101475.80;;;6.36;100.00
50065;BME280;64524;47.848;-122.338;2023-04-19T14:48:01;101481.16;;;6.36;100.00
50065;BME280;64524;47.848;-122.338;2023-04-19T14:51:27;101487.25;;;6.38;100.00
50065;BME280;64524;47.848;-122.338;2023-04-19T14:53:57;101487.71;;;6.41;100.00
50065;BME280;64524;47.848;-122.338;2023-04-19T14:57:07;101492.95;;;6.42;100.00
50065;BME280;64524;47.848;-122.338;2023-04-19T15:00:09;101496.13;;;6.44;100.00
50065;BME280;64524;47.848;-122.338;2023-04-19T15:06:35;101502.52;;;6.49;100.00
50065;BME280;64524;47.848;-122.338;2023-04-19T15:09:17;101503.10;;;6.51;100.00
50065;BME280;64524;47.848;-122.338;2023-04-19T15:19:02;101514.20;;;6.61;100.00
50065;BME280;64524;47.848;-122.338;2023-04-19T15:36:14;101532.89;;;6.72;100.00
50065;BME280;64524;47.848;-122.338;2023-04-19T16:12:45;101588.77;;;7.00;100.00
50065;BME280;64524;47.848;-122.338;2023-04-19T16:23:17;101599.81;;;7.09;100.00
50065;BME280;64524;47.848;-122.338;2023-04-19T16:46:31;101624.81;;;7.22;100.00
50065;BME280;64524;47.848;-122.338;2023-04-19T16:49:33;101630.98;;;7.26;100.00
50065;BME280;64524;47.848;-122.338;2023-04-19T16:52:46;101633.18;;;7.29;100.00
50065;BME280;64524;47.848;-122.338;2023-04-19T16:55:20;101632.09;;;7.28;100.00
50065;BME280;64524;47.848;-122.338;2023-04-19T17:05:29;101639.27;;;7.35;100.00
50065;BME280;64524;47.848;-122.338;2023-04-19T17:14:47;101656.81;;;7.47;100.00
50065;BME280;64524;47.848;-122.338;2023-04-19T17:21:17;101668.17;;;7.51;100.00
50065;BME280;64524;47.848;-122.338;2023-04-19T17:38:02;101678.98;;;7.54;100.00
50065;BME280;64524;47.848;-122.338;2023-04-19T17:40:32;101678.16;;;7.55;100.00
50065;BME280;64524;47.848;-122.338;2023-04-19T17:48:50;101689.31;;;7.58;100.00
50065;BME280;64524;47.848;-122.338;2023-04-19T17:51:34;101691.30;;;7.60;100.00
50065;BME280;64524;47.848;-122.338;2023-04-19T17:54:13;101698.13;;;7.63;100.00
50065;BME280;64524;47.848;-122.338;2023-04-19T18:00:05;101695.33;;;7.71;100.00
50065;BME280;64524;47.848;-122.338;2023-04-19T18:02:55;101704.63;;;7.75;100.00
50065;BME280;64524;47.848;-122.338;2023-04-19T18:06:09;101703.08;;;7.79;100.00
50065;BME280;64524;47.848;-122.338;2023-04-19T18:09:29;101704.14;;;7.84;100.00
50065;BME280;64524;47.848;-122.338;2023-04-19T18:12:38;101703.80;;;7.89;100.00
50065;BME280;64524;47.848;-122.338;2023-04-19T18:18:33;101704.80;;;7.97;100.00
50065;BME280;64524;47.848;-122.338;2023-04-19T18:21:15;101709.10;;;8.01;100.00
50065;BME280;64524;47.848;-122.338;2023-04-19T18:23:54;101717.70;;;8.05;100.00
50065;BME280;64524;47.848;-122.338;2023-04-19T18:26:58;101722.97;;;8.08;100.00
50065;BME280;64524;47.848;-122.338;2023-04-19T18:29:30;101720.92;;;8.08;100.00
50065;BME280;64524;47.848;-122.338;2023-04-19T18:35:27;101721.98;;;8.18;100.00
50065;BME280;64524;47.848;-122.338;2023-04-19T18:41:11;101727.31;;;8.32;100.00
50065;BME280;64524;47.848;-122.338;2023-04-19T18:44:12;101725.48;;;8.38;100.00
50065;BME280;64524;47.848;-122.338;2023-04-19T18:50:08;101723.67;;;8.59;100.00
50065;BME280;64524;47.848;-122.338;2023-04-19T18:52:46;101719.94;;;8.66;100.00
50065;BME280;64524;47.848;-122.338;2023-04-19T18:55:17;101723.43;;;8.72;100.00
50065;BME280;64524;47.848;-122.338;2023-04-19T18:57:47;101726.38;;;8.77;100.00
50065;BME280;64524;47.848;-122.338;2023-04-19T19:00:19;101727.23;;;8.81;100.00
50065;BME280;64524;47.848;-122.338;2023-04-19T19:06:39;101733.66;;;8.93;100.00
50065;BME280;64524;47.848;-122.338;2023-04-19T19:12:45;101742.61;;;9.07;100.00
50065;BME280;64524;47.848;-122.338;2023-04-19T19:19:27;101746.51;;;9.19;100.00
50065;BME280;64524;47.848;-122.338;2023-04-19T19:22:36;101746.98;;;9.29;100.00
50065;BME280;64524;47.848;-122.338;2023-04-19T19:25:18;101753.52;;;9.38;100.00
50065;BME280;64524;47.848;-122.338;2023-04-19T19:27:58;101757.77;;;9.46;100.00
50065;BME280;64524;47.848;-122.338;2023-04-19T19:37:42;101756.35;;;9.72;100.00
50065;BME280;64524;47.848;-122.338;2023-04-19T20:05:07;101810.80;;;9.70;100.00
50065;BME280;64524;47.848;-122.338;2023-04-19T20:08:20;101814.05;;;9.64;100.00
50065;BME280;64524;47.848;-122.338;2023-04-19T20:11:28;101821.98;;;9.64;100.00
50065;BME280;64524;47.848;-122.338;2023-04-19T20:14:18;101828.34;;;9.62;100.00
50065;BME280;64524;47.848;-122.338;2023-04-19T20:16:48;101818.46;;;9.62;100.00
50065;BME280;64524;47.848;-122.338;2023-04-19T20:20:18;101823.50;;;9.62;100.00
50065;BME280;64524;47.848;-122.338;2023-04-19T20:33:29;101837.91;;;9.74;100.00
50065;BME280;64524;47.848;-122.338;2023-04-19T20:39:26;101839.92;;;9.83;100.00
50065;BME280;64524;47.848;-122.338;2023-04-19T20:42:09;101846.33;;;9.88;100.00
50065;BME280;64524;47.848;-122.338;2023-04-19T20:44:45;101845.30;;;9.93;100.00
50065;BME280;64524;47.848;-122.338;2023-04-19T20:47:36;101853.90;;;9.97;100.00
50065;BME280;64524;47.848;-122.338;2023-04-19T20:53:56;101860.45;;;10.07;100.00
50065;BME280;64524;47.848;-122.338;2023-04-19T20:56:35;101865.91;;;10.10;100.00
50065;BME280;64524;47.848;-122.338;2023-04-19T20:59:16;101869.50;;;10.14;100.00
50065;BME280;64524;47.848;-122.338;2023-04-19T21:09:11;101875.70;;;10.30;100.00
50065;BME280;64524;47.848;-122.338;2023-04-19T21:22:56;101878.52;;;10.47;100.00
50065;BME280;64524;47.848;-122.338;2023-04-19T21:31:56;101887.21;;;10.60;100.00